Time;durP1;ratioP1;P1;durP2;ratioP2;P2;SDS_P1;SDS_P2;PMS_P1;PMS_P2;Temp;Humidity;BMP_temperature;BMP_pressure;BME280_temperature;BME280_humidity;BME280_pressure;Samples;Min_cycle;Max_cycle;Signal;HPM_P1;HPM_P2
2022/08/10 03:02:07;;;;;;;13.48;8.68;;;15.20;99.90;;;;;;5221673;23;20050;-79
2022/08/10 03:04:36;;;;;;;13.90;9.07;;;15.10;99.90;;;;;;4957671;28;20043;-79
2022/08/10 03:07:07;;;;;;;11.75;7.82;;;15.20;99.90;;;;;;4957597;28;20090;-80
2022/08/10 03:09:35;;;;;;;12.27;7.95;;;15.10;99.90;;;;;;4973835;28;20074;-80
2022/08/10 03:12:02;;;;;;;12.77;8.85;;;15.10;99.90;;;;;;4959193;28;20047;-79
2022/08/10 03:14:29;;;;;;;13.23;8.75;;;15.10;99.90;;;;;;4955982;28;20046;-80
2022/08/10 03:16:56;;;;;;;15.80;9.90;;;15.10;99.90;;;;;;4954245;29;20095;-80
2022/08/10 03:19:23;;;;;;;15.77;8.98;;;15.10;99.90;;;;;;4955375;29;20051;-79
2022/08/10 03:21:51;;;;;;;15.98;10.07;;;15.10;99.90;;;;;;4954781;28;20402;-80
2022/08/10 03:24:21;;;;;;;14.77;8.75;;;15.10;99.90;;;;;;4955858;28;20061;-78
2022/08/10 03:26:49;;;;;;;14.00;8.40;;;15.10;99.90;;;;;;4954461;29;20094;-78
2022/08/10 03:29:17;;;;;;;17.02;10.52;;;15.10;99.90;;;;;;4954687;29;20336;-80
2022/08/10 03:31:44;;;;;;;12.27;8.65;;;15.10;99.90;;;;;;4955508;28;20050;-80
2022/08/10 03:34:11;;;;;;;14.23;9.60;;;15.00;99.90;;;;;;4954855;29;20058;-79
2022/08/10 03:36:36;;;;;;;15.77;9.40;;;15.00;99.90;;;;;;4954166;29;20047;-80
2022/08/10 03:39:02;;;;;;;16.58;10.68;;;15.10;99.90;;;;;;4954617;29;20455;-80
2022/08/10 03:41:47;;;;;;;15.07;9.60;;;15.00;99.90;;;;;;4938153;29;20047;-80
2022/08/10 03:44:17;;;;;;;13.18;9.45;;;15.00;99.90;;;;;;4954511;29;20094;-79
2022/08/10 03:46:45;;;;;;;13.20;9.27;;;14.90;99.90;;;;;;4954543;28;20375;-80
2022/08/10 03:49:13;;;;;;;13.10;9.20;;;14.90;99.90;;;;;;4957806;29;20155;-80
2022/08/10 03:51:40;;;;;;;18.40;9.68;;;14.90;99.90;;;;;;4958159;28;20039;-80
2022/08/10 03:54:07;;;;;;;18.13;10.70;;;14.90;99.90;;;;;;4958144;29;20047;-81
2022/08/10 03:56:35;;;;;;;19.35;10.90;;;14.90;99.90;;;;;;4958336;29;20078;-79
2022/08/10 03:59:01;;;;;;;17.38;11.00;;;14.90;99.90;;;;;;4958040;29;20583;-80
2022/08/10 04:01:29;;;;;;;19.95;11.85;;;14.90;99.90;;;;;;4957631;28;20046;-79
2022/08/10 04:03:54;;;;;;;15.35;9.75;;;14.90;99.90;;;;;;4957856;29;20047;-80
2022/08/10 04:06:20;;;;;;;18.10;11.15;;;14.90;99.90;;;;;;4957496;29;20147;-79
2022/08/10 04:08:46;;;;;;;19.52;11.82;;;14.90;99.90;;;;;;4957372;29;20039;-78
2022/08/10 04:11:12;;;;;;;18.25;11.77;;;14.90;99.90;;;;;;4957604;28;20467;-80
2022/08/10 04:13:38;;;;;;;17.88;11.20;;;14.90;99.90;;;;;;4957419;29;20117;-79
2022/08/10 04:16:05;;;;;;;16.50;11.02;;;14.90;99.90;;;;;;4958010;29;20089;-80
2022/08/10 04:18:31;;;;;;;21.05;12.43;;;14.90;99.90;;;;;;4957679;29;20058;-81
2022/08/10 04:21:10;;;;;;;19.30;11.90;;;14.90;99.90;;;;;;4957494;28;20082;-80
2022/08/10 04:23:42;;;;;;;19.90;12.15;;;14.90;99.90;;;;;;4957500;29;20078;-79
2022/08/10 04:26:09;;;;;;;20.33;12.80;;;14.90;99.90;;;;;;4959011;28;20460;-79
2022/08/10 04:28:35;;;;;;;20.40;11.10;;;14.80;99.90;;;;;;4957516;29;20118;-78
2022/08/10 04:31:05;;;;;;;16.45;10.82;;;14.90;99.90;;;;;;4941158;29;20146;-80
2022/08/10 04:33:31;;;;;;;18.55;11.68;;;14.90;99.90;;;;;;4959110;28;20081;-79
2022/08/10 04:35:58;;;;;;;18.95;11.88;;;14.90;99.90;;;;;;4957305;29;20047;-79
2022/08/10 04:38:25;;;;;;;18.75;11.35;;;14.90;99.90;;;;;;4956950;29;20057;-79
2022/08/10 04:40:51;;;;;;;18.42;10.95;;;14.90;99.90;;;;;;4956982;28;20518;-79
2022/08/10 04:43:17;;;;;;;21.27;12.32;;;14.90;99.90;;;;;;4957356;29;20039;-80
2022/08/10 04:45:43;;;;;;;18.77;11.57;;;14.90;99.90;;;;;;4957064;29;20087;-80
2022/08/10 04:48:09;;;;;;;16.98;10.93;;;14.90;99.90;;;;;;4958305;28;20359;-80
2022/08/10 04:50:35;;;;;;;18.85;12.20;;;14.90;99.90;;;;;;4956704;28;20043;-81
2022/08/10 04:53:00;;;;;;;18.05;11.52;;;15.00;99.90;;;;;;4956877;29;20055;-79
2022/08/10 04:55:26;;;;;;;18.88;11.38;;;15.00;99.90;;;;;;4957174;29;20082;-79
2022/08/10 04:57:52;;;;;;;18.30;11.50;;;15.00;99.90;;;;;;4958152;28;20406;-80
2022/08/10 05:00:18;;;;;;;21.65;11.75;;;15.00;99.90;;;;;;4955579;28;20090;-80
2022/08/10 05:02:43;;;;;;;24.83;13.25;;;15.00;99.90;;;;;;4958400;28;20053;-80
2022/08/10 05:05:09;;;;;;;16.58;9.98;;;15.00;99.90;;;;;;4956886;29;20395;-80
2022/08/10 05:07:35;;;;;;;21.83;12.50;;;15.00;99.90;;;;;;4956676;29;20054;-81
2022/08/10 05:10:00;;;;;;;19.85;10.90;;;15.00;99.90;;;;;;4956814;29;20066;-80
2022/08/10 05:12:26;;;;;;;17.75;11.35;;;15.10;99.90;;;;;;4956663;28;20388;-79
2022/08/10 05:14:52;;;;;;;20.23;12.32;;;15.10;99.90;;;;;;4956740;29;20054;-79
2022/08/10 05:17:18;;;;;;;17.83;10.60;;;15.10;99.90;;;;;;4956674;29;20467;-80
2022/08/10 05:19:44;;;;;;;17.60;11.18;;;15.10;99.90;;;;;;4956224;29;20558;-79
2022/08/10 05:22:10;;;;;;;17.08;9.88;;;15.20;99.90;;;;;;4956256;28;20043;-81
2022/08/10 05:24:35;;;;;;;17.15;11.10;;;15.20;99.90;;;;;;4957503;29;20040;-81
2022/08/10 05:27:01;;;;;;;19.35;11.93;;;15.20;99.90;;;;;;4957680;28;20082;-80
2022/08/10 05:29:27;;;;;;;19.25;11.95;;;15.20;99.90;;;;;;4956129;29;20035;-80
2022/08/10 05:31:53;;;;;;;22.45;11.63;;;15.30;99.90;;;;;;4956120;28;20039;-80
2022/08/10 05:34:25;;;;;;;19.42;11.38;;;15.20;99.90;;;;;;4956350;29;20098;-80
2022/08/10 05:36:52;;;;;;;17.17;10.70;;;15.30;99.90;;;;;;4956711;29;20475;-79
2022/08/10 05:39:19;;;;;;;19.08;10.55;;;15.30;99.90;;;;;;4957283;28;20110;-79
2022/08/10 05:41:46;;;;;;;24.25;12.55;;;15.30;99.90;;;;;;4956035;28;20130;-81
2022/08/10 05:44:12;;;;;;;23.80;13.10;;;15.30;99.90;;;;;;4956277;29;20054;-79
2022/08/10 05:46:37;;;;;;;20.27;12.55;;;15.30;99.90;;;;;;4956994;28;20114;-80
2022/08/10 05:49:03;;;;;;;17.70;10.70;;;15.40;99.90;;;;;;4955793;29;20122;-80
2022/08/10 05:51:29;;;;;;;20.67;12.60;;;15.40;99.90;;;;;;4955702;28;20102;-80
2022/08/10 05:53:55;;;;;;;20.30;11.82;;;15.40;99.90;;;;;;4955742;29;20043;-80
2022/08/10 05:56:21;;;;;;;18.73;12.00;;;15.50;99.90;;;;;;4955970;29;20050;-80
2022/08/10 05:58:46;;;;;;;18.40;11.38;;;15.50;99.90;;;;;;4956006;29;20414;-80
2022/08/10 06:01:15;;;;;;;21.35;11.65;;;15.50;99.90;;;;;;4955595;28;20387;-78
2022/08/10 06:03:52;;;;;;;22.15;13.05;;;15.60;99.90;;;;;;4939603;29;20051;-79
2022/08/10 06:06:19;;;;;;;20.55;12.07;;;15.60;99.90;;;;;;4956030;29;20043;-79
2022/08/10 06:08:48;;;;;;;19.48;11.70;;;15.70;99.90;;;;;;4939440;29;20043;-79
2022/08/10 06:11:15;;;;;;;22.92;12.27;;;15.70;99.90;;;;;;4955392;28;20047;-79
2022/08/10 06:16:31;;;;;;;19.10;12.10;;;15.80;99.90;;;;;;4955728;29;20058;-79
2022/08/10 06:18:58;;;;;;;20.58;12.63;;;15.80;99.90;;;;;;4955632;28;20074;-78
2022/08/10 06:21:25;;;;;;;20.48;12.63;;;15.90;99.90;;;;;;4939205;29;20047;-80
2022/08/10 06:23:52;;;;;;;20.45;12.05;;;15.90;99.90;;;;;;4955937;29;20487;-79
2022/08/10 06:26:17;;;;;;;20.60;12.10;;;16.00;99.90;;;;;;4955668;29;20035;-79
2022/08/10 06:28:49;;;;;;;20.50;11.98;;;16.00;99.90;;;;;;4955710;29;20099;-79
2022/08/10 06:31:17;;;;;;;19.17;11.57;;;16.10;99.90;;;;;;4955464;28;20047;-80
2022/08/10 06:33:44;;;;;;;19.65;10.60;;;16.10;99.90;;;;;;4956707;28;20047;-80
2022/08/10 06:36:11;;;;;;;20.27;11.60;;;16.20;99.90;;;;;;4955279;29;20047;-80
2022/08/10 06:38:38;;;;;;;19.73;11.00;;;16.20;99.90;;;;;;4956440;28;20039;-80
2022/08/10 06:41:11;;;;;;;16.15;10.15;;;16.30;99.90;;;;;;4954827;28;20054;-80
2022/08/10 06:43:42;;;;;;;16.95;10.35;;;16.40;99.90;;;;;;4956445;28;20509;-80
2022/08/10 06:46:14;;;;;;;15.65;10.20;;;16.40;99.90;;;;;;4955203;29;20043;-79
2022/08/10 06:48:51;;;;;;;17.15;10.43;;;16.50;99.90;;;;;;4957080;28;20039;-81
2022/08/10 06:51:28;;;;;;;20.10;11.48;;;16.50;99.90;;;;;;4955895;28;20539;-80
2022/08/10 06:53:58;;;;;;;16.92;10.20;;;16.60;99.90;;;;;;4955550;29;20403;-79
2022/08/10 06:56:32;;;;;;;15.98;10.18;;;16.60;99.90;;;;;;4955263;29;20051;-79
2022/08/10 06:59:05;;;;;;;16.42;9.68;;;16.70;99.90;;;;;;4955151;29;20054;-81
2022/08/10 07:01:34;;;;;;;17.83;9.60;;;16.70;99.90;;;;;;4954910;28;20050;-79
2022/08/10 07:04:14;;;;;;;17.45;9.68;;;16.70;99.90;;;;;;4954766;29;20044;-80
2022/08/10 07:06:44;;;;;;;13.20;8.77;;;16.70;99.90;;;;;;4956421;28;20085;-79
2022/08/10 07:09:11;;;;;;;12.02;8.45;;;16.90;99.90;;;;;;4956320;28;20038;-79
2022/08/10 07:11:38;;;;;;;15.60;8.77;;;16.90;99.90;;;;;;4954259;28;20047;-79
2022/08/10 07:14:05;;;;;;;12.07;8.18;;;16.90;99.90;;;;;;4954681;29;20570;-80
2022/08/10 07:16:33;;;;;;;12.77;8.38;;;17.00;99.90;;;;;;4954594;29;20098;-79
2022/08/10 07:19:01;;;;;;;14.48;8.38;;;17.10;99.90;;;;;;4954404;29;20047;-80
2022/08/10 07:21:29;;;;;;;12.02;8.00;;;17.20;99.90;;;;;;4955771;28;20470;-79
2022/08/10 07:23:57;;;;;;;12.57;6.95;;;17.20;99.90;;;;;;4954244;29;20089;-80
2022/08/10 07:26:24;;;;;;;10.23;7.20;;;17.30;99.90;;;;;;4954844;29;20043;-79
2022/08/10 07:28:51;;;;;;;13.02;7.45;;;17.30;99.90;;;;;;4956782;29;20048;-80
2022/08/10 07:31:19;;;;;;;11.23;7.13;;;17.30;99.90;;;;;;4954602;28;20042;-79
2022/08/10 07:33:48;;;;;;;14.15;6.60;;;17.40;99.90;;;;;;4954734;29;20055;-78
2022/08/10 07:36:14;;;;;;;14.60;6.90;;;17.50;99.90;;;;;;4954661;29;20047;-79
2022/08/10 07:38:42;;;;;;;10.13;6.20;;;17.60;99.90;;;;;;4954462;29;20047;-81
2022/08/10 07:41:08;;;;;;;9.35;5.88;;;17.70;99.90;;;;;;4954460;28;20078;-81
2022/08/10 07:43:39;;;;;;;9.98;5.47;;;17.70;99.90;;;;;;4955792;29;20549;-81
2022/08/10 07:46:11;;;;;;;10.20;5.95;;;17.80;99.90;;;;;;4954592;29;20163;-82
2022/08/10 07:48:44;;;;;;;7.22;4.85;;;17.80;99.90;;;;;;4938485;29;20498;-81
2022/08/10 07:51:11;;;;;;;7.47;4.88;;;17.90;99.90;;;;;;4954486;28;20051;-80
2022/08/10 07:53:49;;;;;;;8.40;5.65;;;18.00;99.90;;;;;;4954319;29;20145;-80
2022/08/10 07:56:17;;;;;;;8.15;5.30;;;18.10;99.90;;;;;;4954441;29;20050;-82
2022/08/10 07:58:56;;;;;;;9.55;5.13;;;18.20;99.90;;;;;;4955642;28;20439;-81
2022/08/10 08:01:30;;;;;;;8.95;5.80;;;18.30;99.90;;;;;;4955392;28;20122;-80
2022/08/10 08:03:59;;;;;;;8.03;4.73;;;18.30;99.90;;;;;;4954099;29;20047;-82
2022/08/10 08:06:26;;;;;;;7.70;5.32;;;18.40;99.90;;;;;;4938139;29;20374;-80
2022/08/10 08:08:51;;;;;;;9.25;4.30;;;18.50;99.90;;;;;;4954394;29;20125;-81
2022/08/10 08:11:18;;;;;;;6.10;4.55;;;18.60;99.90;;;;;;4955284;28;20138;-81
2022/08/10 08:13:45;;;;;;;9.32;5.28;;;18.70;99.90;;;;;;4954053;29;20079;-80
2022/08/10 08:16:13;;;;;;;6.45;4.28;;;18.70;99.90;;;;;;4954113;29;20503;-81
2022/08/10 08:18:40;;;;;;;7.97;3.80;;;18.80;99.90;;;;;;4953620;29;20082;-79
2022/08/10 08:21:06;;;;;;;7.20;4.28;;;18.90;99.90;;;;;;4953546;28;20040;-80
2022/08/10 08:23:34;;;;;;;5.60;4.40;;;19.00;99.90;;;;;;4953787;29;20102;-79
2022/08/10 08:26:01;;;;;;;7.07;3.92;;;19.10;99.90;;;;;;4955105;28;20447;-80
2022/08/10 08:28:28;;;;;;;5.80;3.67;;;19.20;99.90;;;;;;4953589;29;20106;-81
2022/08/10 08:30:54;;;;;;;6.47;3.95;;;19.30;99.90;;;;;;4938107;29;20054;-81
2022/08/10 08:33:22;;;;;;;7.07;3.67;;;19.40;99.90;;;;;;4954994;28;20374;-78
2022/08/10 08:35:48;;;;;;;6.10;4.03;;;19.50;99.90;;;;;;4957022;29;20047;-78
2022/08/10 08:38:15;;;;;;;6.95;3.63;;;19.60;99.90;;;;;;4958067;29;20086;-79
2022/08/10 08:40:52;;;;;;;6.90;3.53;;;19.70;99.90;;;;;;4957179;28;20372;-79
2022/08/10 08:43:42;;;;;;;8.00;3.60;;;19.80;99.90;;;;;;4957178;29;20051;-79
2022/08/10 08:46:32;;;;;;;5.03;2.85;;;19.90;99.90;;;;;;4957271;29;20086;-81
2022/08/10 08:49:18;;;;;;;6.32;3.22;;;20.00;99.90;;;;;;4957330;29;20157;-79
2022/08/10 08:52:11;;;;;;;10.45;3.85;;;20.20;99.90;;;;;;4958141;28;20558;-80
2022/08/10 08:54:44;;;;;;;7.10;3.30;;;20.30;99.90;;;;;;4956828;29;20386;-81
2022/08/10 08:57:25;;;;;;;6.20;2.90;;;20.50;99.90;;;;;;4940722;29;20043;-80
2022/08/10 09:00:10;;;;;;;6.68;2.80;;;20.60;99.90;;;;;;4956522;29;20082;-78
2022/08/10 09:02:45;;;;;;;;;;;20.70;99.90;;;;;;4957288;28;20047;-80
2022/08/10 09:05:35;;;;;;;5.72;2.95;;;20.90;99.90;;;;;;4957725;29;20266;-80
2022/08/10 09:08:21;;;;;;;6.20;2.83;;;21.10;99.90;;;;;;4956648;29;20039;-80
2022/08/10 09:11:31;;;;;;;5.40;2.63;;;21.20;99.90;;;;;;4956721;28;20434;-79
2022/08/10 09:14:15;;;;;;;8.00;2.88;;;21.40;99.90;;;;;;4956702;29;20126;-79
2022/08/10 09:16:52;;;;;;;8.70;2.85;;;21.60;99.90;;;;;;4956567;29;20047;-78
2022/08/10 09:19:31;;;;;;;7.28;2.25;;;21.70;99.90;;;;;;4956804;29;20447;-77
2022/08/10 09:22:06;;;;;;;5.25;2.22;;;21.90;99.90;;;;;;4956212;28;20047;-77
2022/08/10 09:24:44;;;;;;;5.07;2.50;;;22.00;99.90;;;;;;4956721;29;20566;-77
2022/08/10 09:27:18;;;;;;;5.28;2.38;;;22.20;99.90;;;;;;4956414;29;20051;-79
2022/08/10 09:29:56;;;;;;;3.75;2.40;;;22.30;99.90;;;;;;4956428;29;20047;-79
2022/08/10 09:32:52;;;;;;;5.80;2.80;;;22.40;99.90;;;;;;4956724;28;20078;-76
2022/08/10 09:35:44;;;;;;;4.35;2.30;;;22.50;99.90;;;;;;4958057;28;20047;-76
2022/08/10 09:38:31;;;;;;;5.78;1.90;;;22.60;99.90;;;;;;4958751;29;20057;-75
2022/08/10 09:41:12;;;;;;;6.68;2.20;;;22.80;99.90;;;;;;4959629;28;20082;-76
2022/08/10 09:43:40;;;;;;;3.67;2.13;;;22.90;99.90;;;;;;4957700;29;20047;-76
2022/08/10 09:46:19;;;;;;;5.68;2.17;;;23.10;99.90;;;;;;4956682;28;20067;-79
2022/08/10 09:48:52;;;;;;;6.78;2.60;;;23.20;99.90;;;;;;4956753;29;20071;-79
2022/08/10 09:51:52;;;;;;;7.03;2.22;;;23.40;99.90;;;;;;4956190;28;20066;-78
2022/08/10 09:54:42;;;;;;;3.42;1.90;;;23.50;99.90;;;;;;4956817;29;20403;-78
2022/08/10 09:57:20;;;;;;;5.38;1.67;;;23.60;99.90;;;;;;4956021;29;20471;-77
2022/08/10 10:00:18;;;;;;;5.03;2.10;;;23.80;99.90;;;;;;4955849;29;20071;-77
2022/08/10 10:02:47;;;;;;;5.03;2.00;;;24.00;99.90;;;;;;4956914;29;20059;-80
2022/08/10 10:05:32;;;;;;;4.05;1.80;;;24.10;99.90;;;;;;4957062;29;20047;-77
2022/08/10 10:08:22;;;;;;;3.50;1.80;;;24.20;99.90;;;;;;4955504;29;20050;-79
2022/08/10 10:11:13;;;;;;;4.88;1.80;;;24.40;99.90;;;;;;4955525;28;20058;-78
2022/08/10 10:14:03;;;;;;;4.78;1.90;;;24.50;99.90;;;;;;4956056;29;20398;-81
2022/08/10 10:17:02;;;;;;;4.25;1.90;;;24.70;99.90;;;;;;4955926;29;20050;-81
2022/08/10 10:19:53;;;;;;;4.75;2.03;;;24.90;99.90;;;;;;4956403;29;20102;-80
2022/08/10 10:22:35;;;;;;;4.68;1.70;;;24.90;99.90;;;;;;4954377;28;20488;-78
2022/08/10 10:25:08;;;;;;;3.42;1.35;;;25.00;99.90;;;;;;4955497;29;20043;-80
2022/08/10 10:27:47;;;;;;;2.55;1.35;;;25.20;99.90;;;;;;4957463;28;20039;-80
2022/08/10 10:30:15;;;;;;;5.90;1.60;;;25.30;99.90;;;;;;4956927;29;20039;-80
2022/08/10 10:33:29;;;;;;;3.05;1.40;;;25.40;99.90;;;;;;4955434;29;20051;-78
2022/08/10 10:35:58;;;;;;;7.45;1.50;;;25.50;99.90;;;;;;4953711;29;20407;-80
2022/08/10 10:38:35;;;;;;;4.85;1.63;;;25.60;99.90;;;;;;4955563;29;20051;-81
2022/08/10 10:41:19;;;;;;;3.72;1.40;;;25.70;99.90;;;;;;4956719;28;20039;-79
2022/08/10 10:44:16;;;;;;;4.28;2.38;;;25.90;99.90;;;;;;4955276;29;20074;-81
2022/08/10 10:46:54;;;;;;;4.03;1.17;;;26.10;99.90;;;;;;4954985;29;20031;-76
2022/08/10 10:49:48;;;;;;;5.90;1.55;;;26.00;99.90;;;;;;4955240;29;20047;-78
2022/08/10 10:52:16;;;;;;;2.30;1.20;;;26.10;99.90;;;;;;4954984;28;20055;-79
2022/08/10 10:55:09;;;;;;;1.75;1.20;;;26.20;99.90;;;;;;4955064;29;20040;-80
2022/08/10 10:57:58;;;;;;;2.65;1.33;;;26.30;99.90;;;;;;4954134;28;20126;-80
2022/08/10 11:00:31;;;;;;;3.00;1.48;;;26.40;99.90;;;;;;4953064;28;20051;-80
2022/08/10 11:03:37;;;;;;;2.65;1.10;;;26.50;99.90;;;;;;4937052;29;20746;-81
2022/08/10 11:06:21;;;;;;;2.63;1.40;;;26.60;99.90;;;;;;4955294;29;20050;-79
2022/08/10 11:08:54;;;;;;;3.22;1.30;;;26.70;99.90;;;;;;4954128;29;20487;-80
2022/08/10 11:11:27;;;;;;;3.70;1.20;;;26.80;99.90;;;;;;4953974;28;20046;-80
2022/08/10 11:14:27;;;;;;;4.13;1.17;;;26.90;99.90;;;;;;4956224;28;20047;-81
2022/08/10 11:16:59;;;;;;;2.72;1.30;;;27.00;99.20;;;;;;4955966;29;20046;-81
2022/08/10 11:20:09;;;;;;;3.45;1.20;;;27.10;99.90;;;;;;4954641;29;20044;-82
2022/08/10 11:22:43;;;;;;;2.70;1.27;;;27.20;99.90;;;;;;4916528;29;20175;-78
2022/08/10 11:25:17;;;;;;;2.20;1.10;;;27.30;98.80;;;;;;4954681;29;20054;-80
2022/08/10 11:27:48;;;;;;;6.87;1.40;;;27.40;98.70;;;;;;4954813;29;20388;-78
2022/08/10 11:30:19;;;;;;;1.73;1.00;;;27.40;97.40;;;;;;4954400;28;20065;-81
2022/08/10 11:33:21;;;;;;;2.67;1.00;;;27.60;95.80;;;;;;4955835;29;20051;-80
2022/08/10 11:35:51;;;;;;;3.20;0.93;;;27.70;92.60;;;;;;4954905;29;20134;-80
2022/08/10 11:38:40;;;;;;;2.95;1.25;;;27.70;92.50;;;;;;4954445;29;20090;-76
2022/08/10 11:41:27;;;;;;;4.28;1.20;;;27.80;93.00;;;;;;4953939;28;20039;-80
2022/08/10 11:44:30;;;;;;;2.58;1.20;;;27.80;91.70;;;;;;4928402;29;20051;-78
2022/08/10 11:47:19;;;;;;;4.72;1.20;;;27.80;90.90;;;;;;4954266;29;20126;-81
2022/08/10 11:49:53;;;;;;;2.30;1.00;;;27.90;90.80;;;;;;4955220;28;20479;-80
2022/08/10 11:52:35;;;;;;;2.88;1.10;;;28.00;90.60;;;;;;4953816;28;20082;-80
2022/08/10 11:55:11;;;;;;;2.17;1.10;;;28.10;88.40;;;;;;4954232;29;20074;-79
2022/08/10 11:57:37;;;;;;;2.80;1.38;;;28.20;90.00;;;;;;4954100;29;20541;-79
2022/08/10 12:00:06;;;;;;;2.67;0.95;;;28.20;85.50;;;;;;4953947;29;20047;-80
2022/08/10 12:02:37;;;;;;;3.80;0.93;;;28.20;84.80;;;;;;4953648;28;20130;-81
2022/08/10 12:05:25;;;;;;;3.33;1.10;;;28.30;84.80;;;;;;4953999;29;20279;-78
2022/08/10 12:07:54;;;;;;;2.92;0.98;;;28.40;85.00;;;;;;4954000;28;20043;-78
2022/08/10 12:10:22;;;;;;;4.40;1.00;;;28.50;82.80;;;;;;4957182;28;20103;-80
2022/08/10 12:13:15;;;;;;;2.83;1.00;;;28.50;83.70;;;;;;4957680;29;20119;-78
2022/08/10 12:16:05;;;;;;;5.15;0.95;;;28.60;87.10;;;;;;4957796;29;20388;-79
2022/08/10 12:18:46;;;;;;;3.15;0.95;;;28.70;85.80;;;;;;4942312;29;20130;-80
2022/08/10 12:21:39;;;;;;;2.30;1.10;;;28.80;84.50;;;;;;4957872;28;20039;-80
2022/08/10 12:24:17;;;;;;;4.20;1.15;;;28.90;84.30;;;;;;4955383;29;20059;-80
2022/08/10 12:26:57;;;;;;;2.92;1.20;;;29.00;81.00;;;;;;4959287;28;20070;-80
2022/08/10 12:29:27;;;;;;;5.97;1.30;;;29.00;78.00;;;;;;4957794;29;20043;-79
2022/08/10 12:32:05;;;;;;;4.30;1.17;;;29.00;79.50;;;;;;4958525;28;20046;-79
2022/08/10 12:34:44;;;;;;;8.10;1.20;;;29.10;80.10;;;;;;4957382;29;20106;-80
2022/08/10 12:37:31;;;;;;;5.07;1.15;;;29.10;80.00;;;;;;4958853;28;20039;-79
2022/08/10 12:40:14;;;;;;;4.38;1.05;;;29.20;77.00;;;;;;4957516;29;20082;-77
2022/08/10 12:42:50;;;;;;;1.92;1.02;;;29.20;76.50;;;;;;4957512;29;20428;-77
2022/08/10 12:45:24;;;;;;;6.35;1.80;;;29.10;76.90;;;;;;4957220;29;20047;-75
2022/08/10 12:48:15;;;;;;;4.07;1.20;;;29.10;76.50;;;;;;4957082;29;20042;-78
2022/08/10 12:50:52;;;;;;;2.58;1.10;;;29.10;74.10;;;;;;4940814;29;20047;-77
2022/08/10 12:53:38;;;;;;;13.63;1.80;;;29.00;73.00;;;;;;4960155;28;20039;-90
2022/08/10 12:56:07;;;;;;;4.30;1.20;;;29.00;75.80;;;;;;4958325;28;20047;-85
2022/08/10 12:58:36;;;;;;;3.55;1.08;;;29.20;77.40;;;;;;4956788;29;20086;-79
2022/08/10 13:01:05;;;;;;;3.20;1.17;;;29.30;75.60;;;;;;4956525;28;20499;-78
2022/08/10 13:03:32;;;;;;;3.85;0.90;;;29.40;74.60;;;;;;4957888;28;20499;-79
2022/08/10 13:06:03;;;;;;;2.20;1.10;;;29.50;73.70;;;;;;4956895;29;20046;-77
2022/08/10 13:11:22;;;;;;;1.75;0.80;;;29.60;73.10;;;;;;4956561;28;20062;-78
2022/08/10 13:13:50;;;;;;;7.03;1.40;;;29.60;72.40;;;;;;4958086;28;20134;-78
2022/08/10 13:16:20;;;;;;;2.65;1.00;;;29.60;71.90;;;;;;4956622;29;20122;-77
2022/08/10 13:18:50;;;;;;;4.20;1.08;;;29.60;70.40;;;;;;4957160;29;20443;-79
2022/08/10 13:21:16;;;;;;;1.95;0.93;;;29.70;70.10;;;;;;4955516;28;20043;-77
2022/08/10 13:23:48;;;;;;;4.93;0.88;;;29.70;69.70;;;;;;4957218;29;20047;-77
2022/08/10 13:26:21;;;;;;;3.15;1.00;;;29.80;71.00;;;;;;4956351;29;20043;-76
2022/08/10 13:28:51;;;;;;;4.00;1.20;;;29.90;70.90;;;;;;4940562;29;20159;-78
2022/08/10 13:31:20;;;;;;;5.13;1.20;;;30.00;70.60;;;;;;4956345;28;20491;-77
2022/08/10 13:33:52;;;;;;;4.10;1.13;;;30.10;71.10;;;;;;4956682;29;20079;-78
2022/08/10 13:36:27;;;;;;;2.60;0.90;;;30.00;71.60;;;;;;4956481;29;20047;-78
2022/08/10 13:38:55;;;;;;;3.25;0.95;;;30.10;70.90;;;;;;4957892;28;20043;-78
2022/08/10 13:41:27;;;;;;;1.85;0.90;;;30.00;68.10;;;;;;4957712;28;20075;-78
2022/08/10 13:43:57;;;;;;;2.78;1.02;;;30.00;68.50;;;;;;4956325;29;20043;-79
2022/08/10 13:46:22;;;;;;;1.52;0.93;;;30.00;67.80;;;;;;4956233;29;20057;-79
2022/08/10 13:48:52;;;;;;;2.00;1.15;;;30.00;68.20;;;;;;4956121;29;20491;-79
2022/08/10 13:51:22;;;;;;;1.25;0.70;;;30.00;68.20;;;;;;4957140;28;20130;-78
2022/08/10 13:53:49;;;;;;;3.00;1.10;;;29.90;68.40;;;;;;4956032;29;20047;-79
2022/08/10 13:56:16;;;;;;;2.28;0.90;;;29.90;68.90;;;;;;4955597;29;20043;-78
2022/08/10 13:58:46;;;;;;;2.13;0.90;;;30.00;68.30;;;;;;4957101;28;20042;-77
2022/08/10 14:01:15;;;;;;;2.50;0.90;;;30.00;67.60;;;;;;4955331;28;20051;-79
2022/08/10 14:03:44;;;;;;;3.95;0.90;;;30.10;68.20;;;;;;4956957;28;20049;-78
2022/08/10 14:06:13;;;;;;;1.85;0.90;;;30.20;67.20;;;;;;4955315;29;20039;-78
2022/08/10 14:08:40;;;;;;;3.08;0.90;;;30.20;67.90;;;;;;4955498;29;20035;-77
2022/08/10 14:11:11;;;;;;;5.45;1.15;;;30.10;65.80;;;;;;4955435;28;20047;-77
2022/08/10 14:13:41;;;;;;;3.72;0.90;;;30.00;64.10;;;;;;4957054;28;20390;-78
2022/08/10 14:16:09;;;;;;;1.83;0.80;;;29.90;64.30;;;;;;4956613;28;20054;-78
2022/08/10 14:18:36;;;;;;;3.67;1.13;;;30.00;66.30;;;;;;4955531;29;20380;-78
2022/08/10 14:21:02;;;;;;;2.47;1.08;;;30.00;66.70;;;;;;4955167;28;20138;-77
2022/08/10 14:23:27;;;;;;;2.25;1.05;;;30.10;66.50;;;;;;4955219;29;20559;-78
2022/08/10 14:26:04;;;;;;;2.58;0.93;;;30.10;67.00;;;;;;4955880;29;20182;-77
2022/08/10 14:28:42;;;;;;;2.78;0.88;;;30.10;67.70;;;;;;4955117;29;20514;-79
2022/08/10 14:31:12;;;;;;;3.75;1.13;;;30.20;68.30;;;;;;4955085;28;20083;-77
2022/08/10 14:33:43;;;;;;;5.85;0.90;;;30.20;67.40;;;;;;4954971;29;20078;-77
2022/08/10 14:36:10;;;;;;;2.08;0.75;;;30.30;66.80;;;;;;4956195;28;20050;-78
2022/08/10 14:38:37;;;;;;;3.70;1.00;;;30.30;66.70;;;;;;4954933;29;20061;-77
2022/08/10 14:41:15;;;;;;;2.80;0.80;;;30.30;66.00;;;;;;4954602;28;20067;-76
2022/08/10 14:43:41;;;;;;;2.13;1.20;;;30.30;65.80;;;;;;4956050;28;20047;-78
2022/08/10 14:46:10;;;;;;;3.42;0.98;;;30.30;65.90;;;;;;4954699;29;20542;-78
2022/08/10 14:48:40;;;;;;;5.68;1.10;;;30.30;66.40;;;;;;4954587;29;20050;-78
2022/08/10 14:51:08;;;;;;;5.03;1.10;;;30.30;66.40;;;;;;4955936;28;20047;-77
2022/08/10 14:53:35;;;;;;;4.82;1.75;;;30.30;66.00;;;;;;4954469;29;20106;-79
2022/08/10 14:56:03;;;;;;;3.70;1.08;;;30.20;65.70;;;;;;4954437;29;20130;-78
2022/08/10 14:58:38;;;;;;;3.70;1.00;;;30.20;65.00;;;;;;4954374;29;20043;-78
2022/08/10 15:01:06;;;;;;;3.58;1.02;;;30.30;66.00;;;;;;4954210;28;20051;-78
2022/08/10 15:03:38;;;;;;;25.70;2.88;;;30.30;65.70;;;;;;4955170;29;20098;-76
2022/08/10 15:06:14;;;;;;;4.55;1.02;;;30.30;65.20;;;;;;4955975;28;20506;-78
2022/08/10 15:08:43;;;;;;;1.75;0.80;;;30.20;65.70;;;;;;4954297;29;20074;-78
2022/08/10 15:11:10;;;;;;;3.00;1.00;;;30.20;66.00;;;;;;4938338;29;20046;-79
2022/08/10 15:13:49;;;;;;;2.15;0.73;;;30.20;65.80;;;;;;4955699;28;20050;-79
2022/08/10 15:16:17;;;;;;;3.25;1.00;;;30.20;65.70;;;;;;4954457;29;20133;-78
2022/08/10 15:18:46;;;;;;;2.92;0.95;;;30.20;65.30;;;;;;4954339;29;20453;-78
2022/08/10 15:21:13;;;;;;;7.70;6.70;;;30.20;64.80;;;;;;4953938;28;20050;-78
2022/08/10 15:23:49;;;;;;;3.35;1.70;;;30.20;64.90;;;;;;4954122;29;20051;-77
2022/08/10 15:26:18;;;;;;;7.35;1.40;;;30.20;63.60;;;;;;4954055;29;20097;-79
2022/08/10 15:28:47;;;;;;;4.05;1.27;;;30.20;64.70;;;;;;4955268;28;20039;-75
2022/08/10 15:31:18;;;;;;;1.83;0.90;;;30.20;64.60;;;;;;4955343;28;20058;-78
2022/08/10 15:39:34;;;;;;;4.10;1.27;;;30.10;64.70;;;;;;4955683;28;20081;-79
2022/08/10 15:42:04;;;;;;;21.88;10.98;;;30.10;65.00;;;;;;4953750;28;20047;-78
2022/08/10 15:44:41;;;;;;;5.82;2.08;;;30.10;65.60;;;;;;4953310;29;20039;-77
2022/08/10 15:47:13;;;;;;;5.28;2.60;;;30.10;65.90;;;;;;4954084;29;20361;-76
2022/08/10 15:49:48;;;;;;;8.05;5.43;;;30.10;65.40;;;;;;4954068;29;20054;-79
2022/08/10 15:52:39;;;;;;;10.35;7.97;;;30.10;65.00;;;;;;4953929;28;20543;-77
2022/08/10 15:55:14;;;;;;;2.85;1.45;;;30.10;65.60;;;;;;4938018;29;20134;-78
2022/08/10 15:57:45;;;;;;;4.47;2.13;;;30.10;65.50;;;;;;4954009;29;20074;-78
2022/08/10 16:00:15;;;;;;;3.47;1.30;;;30.00;65.00;;;;;;4953870;29;20066;-76
2022/08/10 16:02:57;;;;;;;2.22;1.20;;;30.10;65.20;;;;;;4954948;28;20345;-79
2022/08/10 16:05:33;;;;;;;3.75;1.75;;;30.00;65.50;;;;;;4955537;28;20039;-77
2022/08/10 16:08:05;;;;;;;3.22;1.25;;;29.90;66.10;;;;;;4954193;29;20038;-76
2022/08/10 16:10:38;;;;;;;7.30;1.65;;;29.90;65.60;;;;;;4953581;28;20061;-80
2022/08/10 16:13:07;;;;;;;3.55;1.40;;;29.90;66.10;;;;;;4955238;28;20122;-77
2022/08/10 16:15:35;;;;;;;2.53;1.20;;;29.90;65.50;;;;;;4937930;29;20106;-78
2022/08/10 16:18:08;;;;;;;7.05;1.55;;;29.90;64.90;;;;;;4954306;28;20082;-80
2022/08/10 16:20:51;;;;;;;4.47;1.30;;;29.80;65.50;;;;;;4954665;28;20043;-79
2022/08/10 16:23:19;;;;;;;5.30;1.27;;;29.80;65.50;;;;;;4953897;28;20055;-80